Time;durP1;ratioP1;P1;durP2;ratioP2;P2;SDS_P1;SDS_P2;PMS_P1;PMS_P2;Temp;Humidity;BMP_temperature;BMP_pressure;BME280_temperature;BME280_humidity;BME280_pressure;Samples;Min_cycle;Max_cycle;Signal;HPM_P1;HPM_P2
2024/04/15 00:01:28;;;;;;;;;;;;;;;16.57;36.01;101119.31;5469279;25;95196;-73
2024/04/15 00:03:54;;;;;;;4.80;1.33;;;;;;;16.92;35.73;101118.28;5477202;25;99919;-73
2024/04/15 00:06:22;;;;;;;;;;;;;;;17.04;35.90;101111.38;5467946;25;97198;-73
2024/04/15 00:08:47;;;;;;;7.80;1.38;;;;;;;17.13;35.52;101103.69;5473721;25;94862;-73
2024/04/15 00:11:15;;;;;;;;;;;;;;;17.01;35.45;101106.22;5472324;25;94825;-73
2024/04/15 00:13:40;;;;;;;9.73;1.50;;;;;;;16.79;35.66;101101.22;5478737;25;95371;-73
2024/04/15 00:16:10;;;;;;;;;;;;;;;16.97;35.83;101102.00;5469934;25;97188;-70
2024/04/15 00:18:38;;;;;;;5.78;1.25;;;;;;;16.81;36.04;101093.13;5480243;25;94714;-71
2024/04/15 00:21:10;;;;;;;11.60;1.40;;;;;;;16.62;36.14;101082.59;5477585;25;94938;-70
2024/04/15 00:23:35;;;;;;;11.13;1.50;;;;;;;16.74;36.15;101079.25;5477450;25;97068;-70
2024/04/15 00:26:03;;;;;;;;;;;;;;;16.58;36.52;101081.03;5471929;25;96878;-71
2024/04/15 00:28:29;;;;;;;5.07;1.20;;;;;;;16.60;36.64;101080.03;5479656;25;95178;-72
2024/04/15 00:30:57;;;;;;;;;;;;;;;16.74;36.63;101076.59;5475855;25;94976;-71
2024/04/15 00:33:23;;;;;;;7.68;1.38;;;;;;;16.75;36.55;101080.97;5478078;25;99846;-71
2024/04/15 00:35:53;;;;;;;;;;;;;;;16.80;36.54;101072.75;5470138;25;99928;-71
2024/04/15 00:38:19;;;;;;;7.68;1.33;;;;;;;16.79;36.85;101069.22;5477577;25;94949;-72
2024/04/15 00:40:47;;;;;;;;;;;;;;;16.76;36.47;101074.69;5480568;25;94966;-71
2024/04/15 00:43:12;;;;;;;5.38;1.20;;;;;;;16.81;36.96;101069.09;5478397;25;97077;-72
2024/04/15 00:45:40;;;;;;;;;;;;;;;16.43;37.23;101076.53;5471043;25;99576;-71
2024/04/15 00:48:11;;;;;;;11.07;1.92;;;;;;;16.78;36.98;101071.97;5475683;25;94746;-72
2024/04/15 00:50:42;;;;;;;5.90;1.60;;;;;;;16.71;36.82;101071.44;5481490;25;94672;-72
2024/04/15 00:53:12;;;;;;;7.43;1.08;;;;;;;16.62;37.22;101071.94;5475805;25;96197;-72
2024/04/15 00:55:42;;;;;;;8.02;1.38;;;;;;;16.36;37.41;101068.00;5472834;25;96963;-73
2024/04/15 00:58:08;;;;;;;9.57;1.55;;;;;;;16.28;37.73;101067.53;5478319;25;94789;-73
2024/04/15 01:00:36;;;;;;;11.90;1.60;;;;;;;16.35;37.45;101068.94;5476279;25;94846;-73
2024/04/15 01:03:02;;;;;;;7.20;1.20;;;;;;;16.22;37.88;101058.06;5480843;25;96252;-73
2024/04/15 01:05:30;;;;;;;;;;;;;;;16.32;37.80;101055.78;5476674;25;100051;-72
2024/04/15 01:07:55;;;;;;;11.55;1.70;;;;;;;16.30;37.72;101050.53;5464485;25;96814;-73
2024/04/15 01:10:26;;;;;;;;;;;;;;;16.25;37.97;101047.25;5476087;25;95155;-72
2024/04/15 01:12:51;;;;;;;10.02;1.30;;;;;;;16.19;38.11;101052.06;5474705;25;97003;-71
2024/04/15 01:15:19;;;;;;;;;;;;;;;16.05;38.24;101041.28;5482769;25;95985;-73
2024/04/15 01:17:45;;;;;;;12.00;1.52;;;;;;;16.03;38.35;101036.00;5476690;25;95150;-72
2024/04/15 01:20:13;;;;;;;;;;;;;;;16.14;38.49;101044.31;5480710;25;94947;-72
2024/04/15 01:22:45;;;;;;;8.35;1.30;;;;;;;16.24;37.88;101034.00;5477825;25;95452;-73
2024/04/15 01:25:15;;;;;;;7.82;1.42;;;;;;;16.31;37.81;101036.25;5481805;25;97469;-73
2024/04/15 01:27:41;;;;;;;7.60;1.38;;;;;;;16.07;38.35;101042.91;5471039;25;96882;-72
2024/04/15 01:30:11;;;;;;;;;;;;;;;16.00;38.26;101041.53;5482468;25;94852;-72
2024/04/15 01:32:36;;;;;;;10.40;2.05;;;;;;;15.94;38.44;101036.53;5477009;25;98814;-71
2024/04/15 01:35:04;;;;;;;;;;;;;;;15.74;38.67;101029.56;5476680;25;96832;-72
2024/04/15 01:37:30;;;;;;;11.95;2.33;;;;;;;15.77;39.02;101034.72;5471398;25;97160;-74
2024/04/15 01:39:58;;;;;;;;;;;;;;;16.09;38.65;101019.69;5482908;25;95007;-74
2024/04/15 01:42:26;;;;;;;5.95;1.60;;;;;;;16.31;38.37;101000.72;5481388;25;96861;-73
2024/04/15 01:44:54;;;;;;;5.82;1.30;;;;;;;16.01;39.02;101000.59;5470233;25;96202;-73
2024/04/15 01:47:19;;;;;;;6.50;1.45;;;;;;;15.37;39.47;100998.59;5480992;25;94962;-72
2024/04/15 01:49:47;;;;;;;;;;;;;;;15.32;39.81;101005.09;5478126;25;94872;-72
2024/04/15 01:52:13;;;;;;;8.38;1.70;;;;;;;15.31;39.62;101006.91;5479002;25;94761;-72
2024/04/15 01:54:41;;;;;;;;;;;;;;;15.20;40.32;101011.94;5479661;25;98011;-72
2024/04/15 01:57:06;;;;;;;5.18;1.10;;;;;;;15.23;40.65;101005.59;5477163;25;94894;-72
2024/04/15 01:59:37;;;;;;;;;;;;;;;15.29;40.52;101000.81;5472822;25;94847;-72
2024/04/15 02:02:03;;;;;;;10.02;1.42;;;;;;;15.21;39.80;101004.81;5477155;25;95607;-72
2024/04/15 02:04:31;;;;;;;;;;;;;;;15.06;39.83;100999.31;5482118;25;99077;-72
2024/04/15 02:06:56;;;;;;;8.23;1.35;;;;;;;14.90;39.10;100997.50;5476427;25;94778;-72
2024/04/15 02:09:24;;;;;;;;;;;;;;;14.84;38.53;100982.66;5482528;25;95031;-72
2024/04/15 02:11:50;;;;;;;11.80;1.63;;;;;;;15.14;38.28;100982.97;5477924;25;98576;-72
2024/04/15 02:14:18;;;;;;;;;;;;;;;15.30;37.62;100970.56;5471246;25;96855;-72
2024/04/15 02:16:46;;;;;;;11.68;1.40;;;;;;;15.18;37.59;100963.22;5479125;25;94769;-72
2024/04/15 02:19:14;;;;;;;12.38;1.88;;;;;;;14.97;38.06;100966.97;5472552;25;94965;-71
2024/04/15 02:21:39;;;;;;;7.07;1.42;;;;;;;15.04;38.19;100963.06;5477180;25;95962;-71
2024/04/15 02:24:11;;;;;;;;;;;;;;;15.06;38.04;100961.19;5477714;25;97289;-71
2024/04/15 02:26:36;;;;;;;11.88;2.03;;;;;;;15.05;38.34;100956.78;5480619;25;95608;-71
2024/04/15 02:29:04;;;;;;;;;;;;;;;14.80;38.58;100958.97;5482562;25;94982;-70
2024/04/15 02:31:29;;;;;;;10.10;1.17;;;;;;;14.86;38.71;100967.50;5471429;25;97188;-72
2024/04/15 02:34:00;;;;;;;;;;;;;;;15.01;38.74;100973.88;5475232;25;97465;-72
2024/04/15 02:36:26;;;;;;;12.73;1.50;;;;;;;15.09;38.24;100961.03;5480247;25;94719;-71
2024/04/15 02:38:54;;;;;;;;;;;;;;;14.69;39.02;100963.03;5478446;25;96544;-72
2024/04/15 02:41:19;;;;;;;13.10;1.77;;;;;;;14.72;38.95;100957.53;5481328;25;97310;-72
2024/04/15 02:43:47;;;;;;;;;;;;;;;14.89;38.76;100959.38;5469971;25;99096;-72
2024/04/15 02:46:12;;;;;;;14.88;2.65;;;;;;;15.30;38.06;100954.59;5480081;25;95292;-72
2024/04/15 02:48:40;;;;;;;;;;;;;;;15.44;37.53;100951.22;5481654;25;94739;-72
2024/04/15 02:51:08;;;;;;;7.35;1.25;;;;;;;14.88;38.82;100946.16;5482641;25;99513;-72
2024/04/15 02:53:37;;;;;;;8.98;1.20;;;;;;;14.61;39.36;100943.91;5480145;25;97465;-72
2024/04/15 02:56:02;;;;;;;5.40;1.33;;;;;;;14.89;38.95;100950.53;5471243;25;95094;-72
2024/04/15 02:58:30;;;;;;;;;;;;;;;14.48;39.20;100937.47;5481448;25;94826;-73
2024/04/15 03:00:56;;;;;;;11.10;1.42;;;;;;;14.78;37.94;100921.78;5478136;25;96994;-72
2024/04/15 03:03:24;;;;;;;;;;;;;;;14.99;38.09;100926.03;5480047;25;99994;-72
2024/04/15 03:05:53;;;;;;;9.13;1.27;;;;;;;14.86;38.43;100929.41;5480053;25;94775;-72
2024/04/15 03:08:24;;;;;;;5.65;1.33;;;;;;;14.52;38.87;100908.91;5480683;25;95335;-72
2024/04/15 03:10:49;;;;;;;10.85;1.42;;;;;;;14.35;39.39;100912.38;5476694;25;96846;-72
2024/04/15 03:13:18;;;;;;;;;;;;;;;14.67;38.41;100916.16;5480508;25;95738;-72
2024/04/15 03:15:52;;;;;;;6.22;1.25;;;;;;;14.63;39.00;100920.78;5472958;25;94730;-71
2024/04/15 03:18:20;;;;;;;4.50;1.48;;;;;;;14.95;38.06;100926.28;5478507;25;95614;-72
2024/04/15 03:20:45;;;;;;;6.90;1.20;;;;;;;15.16;38.02;100909.22;5473734;25;95537;-72
2024/04/15 03:23:13;;;;;;;;;;;;;;;15.28;37.93;100907.72;5478721;25;97519;-71
2024/04/15 03:25:41;;;;;;;6.45;1.27;;;;;;;15.09;38.36;100907.81;5477511;25;94718;-72
2024/04/15 03:28:09;;;;;;;6.50;1.45;;;;;;;14.83;38.22;100903.81;5480585;25;94937;-72
2024/04/15 03:30:35;;;;;;;7.22;1.27;;;;;;;15.04;38.26;100901.84;5472846;25;96963;-71
2024/04/15 03:33:03;;;;;;;;;;;;;;;14.92;38.56;100884.72;5466921;25;99606;-71
2024/04/15 03:35:29;;;;;;;8.27;1.15;;;;;;;15.08;39.31;100874.16;5469765;25;94818;-71
2024/04/15 03:37:57;;;;;;;;;;;;;;;15.04;40.41;100861.94;5480922;25;95079;-71
2024/04/15 03:40:25;;;;;;;6.80;0.85;;;;;;;14.89;38.43;100860.06;5478120;25;98492;-72
2024/04/15 03:42:56;;;;;;;5.75;1.40;;;;;;;14.55;40.52;100844.97;5476179;25;100125;-72
2024/04/15 03:45:21;;;;;;;7.55;1.08;;;;;;;14.50;40.62;100834.56;5472328;25;95340;-73
2024/04/15 03:47:49;;;;;;;;;;;;;;;14.64;39.96;100826.72;5480185;25;95497;-73
2024/04/15 03:50:15;;;;;;;6.72;0.95;;;;;;;14.54;40.53;100825.50;5478055;25;96699;-73
2024/04/15 03:52:43;;;;;;;;;;;;;;;14.31;41.38;100812.44;5481673;25;96027;-72
2024/04/15 03:55:08;;;;;;;12.10;1.45;;;;;;;14.43;40.60;100805.72;5475239;25;94710;-72
2024/04/15 03:57:36;;;;;;;;;;;;;;;14.46;40.40;100806.41;5472429;25;97110;-72
2024/04/15 04:00:05;;;;;;;5.95;0.95;;;;;;;14.61;40.38;100802.09;5479681;25;95874;-72
2024/04/15 04:02:33;;;;;;;7.72;1.15;;;;;;;14.68;39.84;100807.03;5477894;25;95879;-72
2024/04/15 04:04:59;;;;;;;5.22;1.23;;;;;;;14.75;39.83;100802.25;5475472;25;95592;-72
2024/04/15 04:07:27;;;;;;;;;;;;;;;14.68;39.67;100803.53;5480375;25;94844;-71
2024/04/15 04:09:53;;;;;;;7.82;1.55;;;;;;;14.74;39.93;100805.84;5474659;25;95601;-72
2024/04/15 04:12:21;;;;;;;;;;;;;;;14.64;40.21;100807.25;5479356;25;96839;-72
2024/04/15 04:14:46;;;;;;;6.50;1.40;;;;;;;14.77;39.23;100804.84;5477070;25;94732;-71
2024/04/15 04:17:17;;;;;;;;;;;;;;;14.72;39.53;100800.59;5480044;25;94912;-71
2024/04/15 04:19:42;;;;;;;8.05;1.73;;;;;;;14.84;39.53;100811.53;5477131;25;95723;-72
2024/04/15 04:22:10;;;;;;;;;;;;;;;15.28;38.65;100823.38;5469325;25;96226;-72
2024/04/15 04:24:38;;;;;;;5.10;0.93;;;;;;;15.26;38.85;100822.59;5470061;25;94874;-71
2024/04/15 04:27:04;;;;;;;6.75;1.20;;;;;;;14.97;40.09;100834.78;5478562;25;95010;-71
2024/04/15 04:29:35;;;;;;;;;;;;;;;14.89;40.41;100829.00;5469307;25;96287;-71
2024/04/15 04:32:01;;;;;;;9.60;1.98;;;;;;;14.90;40.50;100819.25;5473943;25;96923;-72
2024/04/15 04:34:32;;;;;;;7.47;1.63;;;;;;;14.81;40.87;100823.22;5469399;25;95254;-78
2024/04/15 04:36:58;;;;;;;8.82;1.25;;;;;;;14.96;40.62;100829.56;5475757;25;94805;-79
2024/04/15 04:39:26;;;;;;;;;;;;;;;14.85;40.72;100835.41;5471019;25;95879;-75
2024/04/15 04:41:54;;;;;;;12.77;1.77;;;;;;;15.04;40.28;100824.66;5472686;25;99832;-76
2024/04/15 04:44:21;;;;;;;15.15;1.98;;;;;;;14.95;40.50;100846.47;5477714;25;95148;-77
2024/04/15 04:46:50;;;;;;;11.95;1.63;;;;;;;14.96;40.82;100849.03;5478015;25;96458;-76
2024/04/15 04:49:15;;;;;;;15.02;1.48;;;;;;;15.15;40.47;100855.13;5478818;25;95879;-75
2024/04/15 04:51:48;;;;;;;;;;;;;;;15.04;40.33;100845.97;5472131;25;96038;-75
2024/04/15 04:54:14;;;;;;;10.60;2.25;;;;;;;14.92;40.72;100844.81;5472654;25;94707;-77
2024/04/15 04:56:42;;;;;;;;;;;;;;;14.81;40.84;100854.28;5481658;25;95373;-75
2024/04/15 04:59:07;;;;;;;12.85;1.83;;;;;;;14.75;41.17;100848.34;5480341;25;95513;-76
2024/04/15 05:01:35;;;;;;;;;;;;;;;14.96;40.85;100851.72;5474764;25;100067;-78
2024/04/15 05:04:00;;;;;;;10.80;1.73;;;;;;;14.96;41.21;100848.19;5481824;25;94946;-79
2024/04/15 05:06:28;;;;;;;;;;;;;;;15.39;40.27;100852.94;5480180;25;96976;-79
2024/04/15 05:08:56;;;;;;;7.90;1.88;;;;;;;15.54;39.42;100852.16;5471687;25;95417;-76
2024/04/15 05:11:24;;;;;;;8.38;1.42;;;;;;;15.56;39.46;100853.88;5475067;25;97311;-77
2024/04/15 05:13:50;;;;;;;9.02;1.33;;;;;;;15.56;39.72;100859.22;5475357;25;95656;-76
2024/04/15 05:16:18;;;;;;;;;;;;;;;15.22;39.85;100860.13;5476266;25;94883;-75
2024/04/15 05:18:44;;;;;;;12.82;1.30;;;;;;;14.83;40.58;100855.06;5476522;25;99073;-75
2024/04/15 05:21:13;;;;;;;;;;;;;;;15.19;40.19;100860.28;5476137;25;99603;-77
2024/04/15 05:23:39;;;;;;;10.35;1.73;;;;;;;15.31;40.36;100857.81;5468146;25;94969;-75
2024/04/15 05:26:10;;;;;;;;;;;;;;;15.38;39.59;100850.38;5473319;25;98308;-77
2024/04/15 05:28:35;;;;;;;12.13;1.45;;;;;;;15.22;39.97;100841.50;5471285;25;96661;-77
2024/04/15 05:31:03;;;;;;;;;;;;;;;15.02;39.58;100845.19;5475197;25;95826;-79
2024/04/15 05:33:28;;;;;;;13.18;1.58;;;;;;;14.71;40.07;100844.09;5472657;25;94709;-76
2024/04/15 05:35:56;;;;;;;;;;;;;;;14.64;40.48;100848.00;5478249;25;94980;-76
2024/04/15 05:38:22;;;;;;;9.48;2.22;;;;;;;14.67;40.78;100836.38;5475874;25;95474;-75
2024/04/15 05:40:51;;;;;;;11.02;1.25;;;;;;;14.47;41.28;100845.34;5474960;25;97760;-75
2024/04/15 05:43:19;;;;;;;11.30;1.90;;;;;;;14.60;41.21;100840.28;5461301;25;95057;-76
2024/04/15 05:45:47;;;;;;;8.15;1.42;;;;;;;14.34;40.63;100833.56;5473818;25;94903;-75
2024/04/15 05:48:12;;;;;;;9.32;1.63;;;;;;;14.69;40.41;100824.72;5475213;25;94835;-78
2024/04/15 05:50:41;;;;;;;;;;;;;;;14.75;40.12;100827.06;5469084;25;97024;-75
2024/04/15 05:53:06;;;;;;;7.68;1.60;;;;;;;14.47;39.71;100828.53;5475207;25;95191;-77
2024/04/15 05:55:34;;;;;;;;;;;;;;;14.57;40.29;100825.31;5480519;25;94879;-77
2024/04/15 05:57:59;;;;;;;9.52;1.50;;;;;;;14.95;39.80;100811.88;5475461;25;95703;-78
2024/04/15 06:00:30;;;;;;;;;;;;;;;14.75;39.98;100808.44;5479194;25;96210;-78
2024/04/15 06:02:55;;;;;;;14.23;1.75;;;;;;;14.88;39.75;100807.81;5479628;25;95328;-78
2024/04/15 06:05:24;;;;;;;;;;;;;;;15.31;38.99;100801.03;5491759;25;94832;-77
2024/04/15 06:07:50;;;;;;;10.18;1.35;;;;;;;15.59;38.90;100803.09;5481001;25;98412;-77
2024/04/15 06:10:18;;;;;;;;;;;;;;;15.85;38.06;100798.03;5492499;25;96898;-76
2024/04/15 06:12:44;;;;;;;12.05;1.73;;;;;;;15.59;38.31;100792.44;5479083;25;94742;-77
2024/04/15 06:15:12;;;;;;;;;;;;;;;15.87;37.84;100797.97;5480613;25;94951;-78
2024/04/15 06:17:40;;;;;;;9.63;2.03;;;;;;;16.13;38.00;100791.16;5480420;25;96831;-78
2024/04/15 06:20:09;;;;;;;12.60;1.65;;;;;;;15.79;38.24;100789.53;5471452;25;98859;-77
2024/04/15 06:22:38;;;;;;;18.25;3.15;;;;;;;16.14;37.25;100788.41;5478082;25;95212;-78
2024/04/15 06:25:04;;;;;;;11.75;1.75;;;;;;;16.64;35.81;100774.78;5477779;25;94912;-77
2024/04/15 06:27:33;;;;;;;17.45;1.77;;;;;;;16.51;35.90;100786.22;5467221;25;95947;-77
2024/04/15 06:29:58;;;;;;;12.95;1.70;;;;;;;16.49;36.77;100777.44;5476827;25;96887;-77
2024/04/15 06:32:26;;;;;;;;;;;;;;;16.08;36.96;100782.56;5475348;25;95271;-76
2024/04/15 06:34:54;;;;;;;8.15;1.83;;;;;;;16.29;36.89;100765.28;5476671;25;95371;-75
2024/04/15 06:37:22;;;;;;;17.35;2.10;;;;;;;16.43;37.21;100773.34;5472990;25;100530;-77
2024/04/15 06:39:48;;;;;;;15.13;1.38;;;;;;;16.54;37.12;100770.88;5476838;25;100258;-77
2024/04/15 06:42:16;;;;;;;;;;;;;;;16.61;36.77;100776.75;5471250;25;94714;-77
2024/04/15 06:44:42;;;;;;;10.98;1.85;;;;;;;16.56;36.51;100771.66;5479583;25;94940;-76
2024/04/15 06:47:09;;;;;;;;;;;;;;;16.59;36.55;100765.31;5473958;25;95622;-78
2024/04/15 06:49:35;;;;;;;11.13;1.30;;;;;;;17.01;36.09;100765.38;5469863;25;97664;-76
2024/04/15 06:52:06;;;;;;;;;;;;;;;17.01;36.09;100754.69;5482634;25;94792;-77
2024/04/15 06:54:32;;;;;;;17.38;2.05;;;;;;;16.87;35.92;100753.84;5482097;25;95683;-77
2024/04/15 06:56:59;;;;;;;;;;;;;;;16.82;35.80;100753.25;5479849;25;97747;-78
2024/04/15 06:59:25;;;;;;;9.45;2.13;;;;;;;16.75;36.21;100747.44;5469377;25;97133;-77
2024/04/15 07:01:53;;;;;;;;;;;;;;;17.04;35.67;100743.84;5470744;25;94813;-77
2024/04/15 07:04:19;;;;;;;11.15;1.95;;;;;;;17.89;34.47;100733.03;5481283;25;94826;-76
2024/04/15 07:06:46;;;;;;;;;;;;;;;17.83;35.06;100737.91;5477489;25;97334;-76
2024/04/15 07:09:15;;;;;;;10.52;1.95;;;;;;;17.64;35.03;100732.06;5479072;25;100153;-77
2024/04/15 07:11:43;;;;;;;12.80;2.13;;;;;;;17.64;35.98;100730.25;5475239;25;95525;-76
2024/04/15 07:14:08;;;;;;;11.35;2.00;;;;;;;17.63;36.39;100717.84;5477351;25;94974;-77
2024/04/15 07:16:37;;;;;;;;;;;;;;;17.39;36.11;100722.91;5474055;25;96855;-76
2024/04/15 07:19:02;;;;;;;13.35;1.92;;;;;;;17.05;37.55;100728.69;5480023;25;96107;-77
2024/04/15 07:21:30;;;;;;;;;;;;;;;16.98;37.71;100727.34;5474239;25;98720;-77
2024/04/15 07:23:56;;;;;;;9.00;1.48;;;;;;;17.01;37.40;100714.66;5472574;25;95898;-77
2024/04/15 07:26:27;;;;;;;;;;;;;;;17.14;38.21;100712.06;5472619;25;96897;-77
2024/04/15 07:28:53;;;;;;;13.88;1.75;;;;;;;16.95;39.04;100715.03;5477177;25;96183;-78
2024/04/15 07:31:21;;;;;;;;;;;;;;;16.85;39.75;100708.56;5481161;25;95242;-77
2024/04/15 07:33:46;;;;;;;6.75;1.88;;;;;;;16.89;40.19;100704.75;5475754;25;95335;-77
2024/04/15 07:36:14;;;;;;;;;;;;;;;16.90;40.25;100693.13;5474492;25;96193;-76
2024/04/15 07:38:40;;;;;;;12.82;1.75;;;;;;;17.37;39.79;100694.59;5478694;25;96065;-77
2024/04/15 07:41:08;;;;;;;;;;;;;;;17.51;39.19;100694.56;5481026;25;94801;-77
2024/04/15 07:43:36;;;;;;;9.00;1.95;;;;;;;17.76;39.01;100694.69;5477628;25;96441;-77
2024/04/15 07:46:04;;;;;;;10.45;2.33;;;;;;;17.53;39.26;100679.28;5479127;25;98671;-77
2024/04/15 07:48:30;;;;;;;10.55;1.83;;;;;;;17.77;38.78;100677.72;5482151;25;96872;-76
2024/04/15 07:50:57;;;;;;;;;;;;;;;17.98;38.91;100669.22;5489288;25;95349;-77
2024/04/15 07:53:26;;;;;;;16.08;3.47;;;;;;;17.93;39.30;100669.50;5468923;25;96478;-77
2024/04/15 07:55:51;;;;;;;7.80;2.00;;;;;;;17.89;38.91;100658.19;5471637;25;99441;-77
2024/04/15 07:58:19;;;;;;;;;;;;;;;18.00;37.92;100657.44;5475043;25;100251;-78
2024/04/15 08:00:50;;;;;;;10.82;1.73;;;;;;;18.31;38.03;100657.06;5477382;25;94791;-80
2024/04/15 08:03:18;;;;;;;8.85;1.90;;;;;;;18.39;37.87;100666.38;5468094;25;96048;-77
2024/04/15 08:05:44;;;;;;;9.77;2.10;;;;;;;18.57;37.89;100660.66;5478911;25;96745;-78
2024/04/15 08:08:12;;;;;;;;;;;;;;;18.74;37.45;100655.94;5480827;25;96978;-77
2024/04/15 08:10:38;;;;;;;9.60;2.10;;;;;;;17.98;39.69;100656.72;5478119;25;94724;-77
2024/04/15 08:13:06;;;;;;;;;;;;;;;17.29;42.01;100654.16;5468683;25;95086;-77
2024/04/15 08:15:32;;;;;;;8.75;2.63;;;;;;;16.83;43.92;100658.91;5472507;25;98864;-77
2024/04/15 08:18:03;;;;;;;7.93;2.30;;;;;;;16.44;45.40;100659.53;5477218;25;99430;-78
2024/04/15 08:20:29;;;;;;;11.13;2.25;;;;;;;15.91;47.56;100666.25;5479553;25;95020;-77
2024/04/15 08:22:57;;;;;;;;;;;;;;;16.69;45.90;100657.09;5480068;25;95236;-77
2024/04/15 08:25:22;;;;;;;12.50;3.00;;;;;;;17.12;44.90;100648.13;5480379;25;96064;-76
2024/04/15 08:27:50;;;;;;;;;;;;;;;17.51;43.57;100646.47;5475091;25;95807;-77
2024/04/15 08:30:16;;;;;;;6.28;2.30;;;;;;;17.90;43.11;100648.34;5477394;25;94964;-78
2024/04/15 08:32:44;;;;;;;;;;;;;;;17.28;44.22;100645.28;5480275;25;94824;-77
2024/04/15 08:35:15;;;;;;;9.43;2.20;;;;;;;17.63;43.62;100635.00;5467477;25;98332;-76
2024/04/15 08:37:43;;;;;;;7.93;2.65;;;;;;;16.69;44.87;100630.41;5479939;25;99004;-77
2024/04/15 08:40:10;;;;;;;7.60;2.80;;;;;;;16.96;44.43;100627.81;5467618;25;95043;-77
2024/04/15 08:42:49;;;;;;;3.97;1.77;;;;;;;15.68;47.51;100633.00;5472196;25;94901;-76
2024/04/15 08:45:18;;;;;;;8.90;2.63;;;;;;;15.87;48.12;100633.63;5467591;25;99059;-79
2024/04/15 08:47:52;;;;;;;6.78;2.13;;;;;;;16.43;47.14;100623.13;5476172;25;99164;-78
2024/04/15 08:50:20;;;;;;;7.47;3.03;;;;;;;16.97;45.51;100621.53;5473062;25;94847;-77
2024/04/15 08:52:51;;;;;;;12.20;2.35;;;;;;;17.50;44.54;100620.72;5479389;25;95209;-78
2024/04/15 08:55:16;;;;;;;8.10;2.75;;;;;;;17.68;43.10;100611.50;5472140;25;100100;-77
2024/04/15 08:57:45;;;;;;;;;;;;;;;17.56;43.43;100608.75;5477803;25;96934;-78
2024/04/15 09:00:14;;;;;;;7.93;1.80;;;;;;;17.96;42.34;100602.47;5469042;25;96480;-78
2024/04/15 09:02:43;;;;;;;6.63;1.90;;;;;;;18.35;40.94;100598.00;5473605;25;95037;-77
2024/04/15 09:05:09;;;;;;;5.78;1.70;;;;;;;18.48;41.17;100597.06;5476618;25;99339;-77
2024/04/15 09:07:48;;;;;;;6.35;2.00;;;;;;;18.20;40.39;100602.59;5473621;25;98262;-80
2024/04/15 09:10:15;;;;;;;5.75;1.50;;;;;;;18.30;40.83;100593.84;5478599;25;94802;-77
2024/04/15 09:12:45;;;;;;;9.25;2.03;;;;;;;17.69;42.15;100591.00;5477719;25;94900;-77
2024/04/15 09:15:25;;;;;;;9.98;2.17;;;;;;;17.75;42.24;100590.56;5471128;25;98014;-76
2024/04/15 09:17:54;;;;;;;8.82;1.48;;;;;;;18.39;41.01;100573.59;5469063;25;98015;-77
2024/04/15 09:20:21;;;;;;;8.07;1.65;;;;;;;17.90;41.82;100579.72;5471865;25;98539;-77
2024/04/15 09:22:51;;;;;;;11.05;2.00;;;;;;;18.32;41.32;100569.66;5479365;25;94812;-77
2024/04/15 09:25:17;;;;;;;6.82;1.63;;;;;;;18.65;39.87;100569.97;5481808;25;98661;-78
2024/04/15 09:27:45;;;;;;;;;;;;;;;19.21;38.66;100554.28;5472418;25;98004;-78
2024/04/15 09:30:11;;;;;;;5.45;1.67;;;;;;;18.82;39.74;100544.69;5479709;25;94780;-78
2024/04/15 09:32:46;;;;;;;;;;;;;;;19.08;39.64;100542.75;5481103;25;94696;-79
2024/04/15 09:35:12;;;;;;;7.38;1.95;;;;;;;19.11;38.99;100532.66;5478670;25;99545;-77
2024/04/15 09:37:41;;;;;;;;;;;;;;;18.80;39.41;100538.56;5472100;25;97077;-78
2024/04/15 09:40:13;;;;;;;5.28;1.52;;;;;;;18.86;39.27;100531.91;5477254;25;95471;-78
2024/04/15 09:42:43;;;;;;;10.10;1.85;;;;;;;19.19;38.29;100521.38;5473277;25;94642;-78
2024/04/15 09:45:09;;;;;;;5.47;1.27;;;;;;;19.21;38.62;100523.97;5474475;25;96946;-78
2024/04/15 09:47:37;;;;;;;;;;;;;;;19.27;38.08;100515.47;5481696;25;98931;-77
2024/04/15 09:50:09;;;;;;;8.20;1.70;;;;;;;19.62;36.85;100511.00;5478153;25;94808;-78
2024/04/15 09:52:39;;;;;;;8.00;1.45;;;;;;;19.92;36.62;100515.81;5475834;25;95107;-78
2024/04/15 09:55:14;;;;;;;7.32;1.77;;;;;;;19.70;36.06;100502.34;5484012;25;98439;-78
2024/04/15 09:57:49;;;;;;;7.75;1.60;;;;;;;19.55;36.00;100509.75;5475074;25;96080;-78
2024/04/15 10:00:16;;;;;;;3.67;1.20;;;;;;;19.61;35.95;100492.34;5481456;25;94800;-77
2024/04/15 10:02:53;;;;;;;6.80;1.63;;;;;;;19.10;37.49;100493.47;5477783;25;95029;-77
2024/04/15 10:05:22;;;;;;;2.60;1.10;;;;;;;18.96;37.50;100482.09;5481390;25;98212;-77
2024/04/15 10:07:52;;;;;;;7.65;1.48;;;;;;;18.52;38.49;100488.84;5475772;25;97001;-78
2024/04/15 10:10:22;;;;;;;3.72;1.08;;;;;;;18.79;38.00;100477.09;5481809;25;95271;-76
2024/04/15 10:12:52;;;;;;;7.53;1.45;;;;;;;19.03;38.11;100472.63;5480514;25;94797;-77
2024/04/15 10:15:19;;;;;;;3.97;1.30;;;;;;;19.35;35.89;100465.69;5480872;25;97873;-77
2024/04/15 10:17:57;;;;;;;5.70;1.65;;;;;;;19.62;36.11;100460.06;5481799;25;100299;-78
2024/04/15 10:20:27;;;;;;;5.70;1.52;;;;;;;19.73;35.76;100462.78;5483038;25;94778;-78
2024/04/15 10:22:58;;;;;;;2.38;0.95;;;;;;;17.80;38.26;100450.31;5471729;25;94816;-77
2024/04/15 10:25:29;;;;;;;5.97;2.67;;;;;;;18.67;37.94;100442.25;5467442;25;99520;-73
2024/04/15 10:27:59;;;;;;;4.32;1.35;;;;;;;18.67;37.62;100431.56;5479282;25;96119;-72
2024/04/15 10:30:26;;;;;;;4.65;1.10;;;;;;;18.91;37.56;100428.00;5472669;25;95425;-73
2024/04/15 10:33:00;;;;;;;8.60;2.65;;;;;;;19.07;37.43;100437.47;5479405;25;94910;-73
2024/04/15 10:35:26;;;;;;;7.40;2.40;;;;;;;18.35;37.30;100443.72;5477554;25;96872;-73
2024/04/15 10:37:55;;;;;;;5.72;1.85;;;;;;;17.82;38.68;100429.69;5479687;25;96269;-72
2024/04/15 10:40:26;;;;;;;2.45;1.40;;;;;;;18.11;38.23;100419.63;5469635;25;95690;-73
2024/04/15 10:42:57;;;;;;;6.20;1.77;;;;;;;17.98;38.33;100416.13;5471552;25;94871;-72
2024/04/15 10:45:22;;;;;;;3.13;1.05;;;;;;;17.64;38.91;100422.13;5476652;25;98745;-73
2024/04/15 10:47:50;;;;;;;;;;;;;;;16.78;41.54;100418.19;5469649;25;96912;-74
2024/04/15 10:50:16;;;;;;;6.72;1.77;;;;;;;17.20;41.55;100412.63;5475330;25;94742;-72
2024/04/15 10:52:44;;;;;;;;;;;;;;;17.56;41.29;100403.91;5479356;25;95219;-73
2024/04/15 10:55:10;;;;;;;4.88;1.30;;;;;;;17.52;41.83;100399.75;5476553;25;96645;-73
2024/04/15 10:57:39;;;;;;;9.63;1.80;;;;;;;17.89;41.68;100393.56;5469468;25;97018;-73
2024/04/15 11:00:11;;;;;;;3.53;1.60;;;;;;;17.98;41.52;100391.19;5477372;25;94806;-72
2024/04/15 11:02:41;;;;;;;9.45;1.98;;;;;;;18.09;40.85;100391.28;5470896;25;96458;-73
2024/04/15 11:05:07;;;;;;;2.65;1.10;;;;;;;17.96;39.93;100383.28;5480951;25;95555;-74
2024/04/15 11:07:35;;;;;;;3.47;1.52;;;;;;;17.35;39.79;100379.53;5474198;25;99810;-74
2024/04/15 11:10:01;;;;;;;5.80;1.00;;;;;;;16.90;41.50;100378.19;5481446;25;94761;-72
2024/04/15 11:12:29;;;;;;;;;;;;;;;16.89;40.74;100381.81;5476467;25;94957;-73
2024/04/15 11:14:55;;;;;;;6.90;1.13;;;;;;;16.44;42.67;100383.03;5470429;25;96897;-74
2024/04/15 11:17:26;;;;;;;3.13;1.55;;;;;;;16.22;44.32;100372.03;5479579;25;99373;-73
2024/04/15 11:19:58;;;;;;;4.82;1.17;;;;;;;16.51;44.28;100362.16;5471111;25;94782;-73
2024/04/15 11:22:27;;;;;;;3.10;1.20;;;;;;;16.89;43.59;100362.28;5466980;25;96607;-72
2024/04/15 11:24:53;;;;;;;5.90;1.50;;;;;;;16.99;43.87;100363.41;5478278;25;95902;-72
2024/04/15 11:27:21;;;;;;;;;;;;;;;16.78;44.03;100357.69;5475844;25;95768;-73
2024/04/15 11:29:48;;;;;;;3.75;1.10;;;;;;;16.26;44.17;100366.44;5468881;25;94796;-73
2024/04/15 11:32:17;;;;;;;7.30;1.38;;;;;;;16.12;45.05;100360.28;5470483;25;95339;-73
2024/04/15 11:34:45;;;;;;;8.13;1.05;;;;;;;15.95;46.27;100361.34;5469164;25;97424;-74
2024/04/15 11:37:13;;;;;;;3.38;1.35;;;;;;;15.55;50.41;100368.34;5473495;25;98866;-71
2024/04/15 11:39:39;;;;;;;3.03;1.67;;;;;;;15.44;51.84;100360.97;5480271;25;95455;-73
2024/04/15 11:42:08;;;;;;;;;;;;;;;15.27;52.49;100353.16;5480275;25;94793;-73
2024/04/15 11:44:34;;;;;;;4.63;1.58;;;;;;;15.98;52.22;100355.81;5479286;25;97252;-72
2024/04/15 11:47:02;;;;;;;;;;;;;;;16.50;51.33;100352.44;5475163;25;99873;-73